sensor_id;sensor_type;location;lat;lon;timestamp;pressure;altitude;pressure_sealevel;temperature;humidity
78615;BME280;67937;52.488;20.952;2023-04-08T00:00:01;101256.87;;;5.60;73.48
78615;BME280;67937;52.488;20.952;2023-04-08T00:02:29;101258.87;;;5.54;73.52
78615;BME280;67937;52.488;20.952;2023-04-08T00:04:57;101262.95;;;5.53;73.64
78615;BME280;67937;52.488;20.952;2023-04-08T00:07:25;101260.88;;;5.53;73.48
78615;BME280;67937;52.488;20.952;2023-04-08T00:09:53;101262.36;;;5.55;73.17
78615;BME280;67937;52.488;20.952;2023-04-08T00:12:22;101266.86;;;5.48;73.65
78615;BME280;67937;52.488;20.952;2023-04-08T00:14:50;101263.66;;;5.53;73.44
78615;BME280;67937;52.488;20.952;2023-04-08T00:17:18;101265.65;;;5.48;73.49
78615;BME280;67937;52.488;20.952;2023-04-08T00:19:46;101264.17;;;5.50;73.35
78615;BME280;67937;52.488;20.952;2023-04-08T00:22:15;101262.33;;;5.48;73.47
78615;BME280;67937;52.488;20.952;2023-04-08T00:24:43;101264.95;;;5.40;73.77
78615;BME280;67937;52.488;20.952;2023-04-08T00:27:11;101267.97;;;5.39;73.99
78615;BME280;67937;52.488;20.952;2023-04-08T00:29:39;101268.44;;;5.40;74.29
78615;BME280;67937;52.488;20.952;2023-04-08T00:32:07;101267.86;;;5.41;74.31
78615;BME280;67937;52.488;20.952;2023-04-08T00:34:35;101267.43;;;5.43;74.40
78615;BME280;67937;52.488;20.952;2023-04-08T00:37:04;101271.33;;;5.46;74.47
78615;BME280;67937;52.488;20.952;2023-04-08T00:39:32;101265.66;;;5.43;74.51
78615;BME280;67937;52.488;20.952;2023-04-08T00:42:00;101267.02;;;5.45;74.64
78615;BME280;67937;52.488;20.952;2023-04-08T00:44:28;101268.36;;;5.46;74.72
78615;BME280;67937;52.488;20.952;2023-04-08T00:46:56;101269.12;;;5.48;74.35
78615;BME280;67937;52.488;20.952;2023-04-08T00:49:25;101266.05;;;5.42;74.44
78615;BME280;67937;52.488;20.952;2023-04-08T00:51:53;101270.62;;;5.38;74.66
78615;BME280;67937;52.488;20.952;2023-04-08T00:54:21;101270.52;;;5.44;74.34
78615;BME280;67937;52.488;20.952;2023-04-08T00:56:50;101274.75;;;5.39;74.38
78615;BME280;67937;52.488;20.952;2023-04-08T00:59:18;101280.33;;;5.36;74.65
78615;BME280;67937;52.488;20.952;2023-04-08T01:07:04;101282.49;;;5.35;74.67
78615;BME280;67937;52.488;20.952;2023-04-08T01:09:37;101283.66;;;5.32;74.58
78615;BME280;67937;52.488;20.952;2023-04-08T01:12:08;101288.36;;;5.32;74.73
78615;BME280;67937;52.488;20.952;2023-04-08T01:14:42;101289.88;;;5.30;74.47
78615;BME280;67937;52.488;20.952;2023-04-08T01:17:13;101291.32;;;5.29;74.65
78615;BME280;67937;52.488;20.952;2023-04-08T01:19:44;101289.77;;;5.32;74.28
78615;BME280;67937;52.488;20.952;2023-04-08T01:25:05;101295.32;;;5.20;74.76
78615;BME280;67937;52.488;20.952;2023-04-08T01:27:36;101298.95;;;5.21;74.86
78615;BME280;67937;52.488;20.952;2023-04-08T01:30:08;101299.05;;;5.23;74.96
78615;BME280;67937;52.488;20.952;2023-04-08T01:32:38;101297.07;;;5.25;74.90
78615;BME280;67937;52.488;20.952;2023-04-08T01:35:07;101298.94;;;5.22;74.85
78615;BME280;67937;52.488;20.952;2023-04-08T01:37:37;101297.15;;;5.23;74.62
78615;BME280;67937;52.488;20.952;2023-04-08T01:40:07;101303.98;;;5.22;74.62
78615;BME280;67937;52.488;20.952;2023-04-08T01:42:36;101304.08;;;5.20;74.61
78615;BME280;67937;52.488;20.952;2023-04-08T01:45:05;101303.82;;;5.18;74.88
78615;BME280;67937;52.488;20.952;2023-04-08T01:47:34;101310.70;;;5.17;75.02
78615;BME280;67937;52.488;20.952;2023-04-08T01:50:05;101318.69;;;5.18;74.97
78615;BME280;67937;52.488;20.952;2023-04-08T01:52:36;101327.98;;;5.17;75.05
78615;BME280;67937;52.488;20.952;2023-04-08T01:55:05;101314.95;;;5.20;75.18
78615;BME280;67937;52.488;20.952;2023-04-08T01:57:36;101318.04;;;5.21;75.22
78615;BME280;67937;52.488;20.952;2023-04-08T02:00:05;101324.11;;;5.22;75.17
78615;BME280;67937;52.488;20.952;2023-04-08T02:02:36;101325.11;;;5.19;75.28
78615;BME280;67937;52.488;20.952;2023-04-08T02:05:05;101322.14;;;5.19;75.30
78615;BME280;67937;52.488;20.952;2023-04-08T02:07:33;101324.44;;;5.18;75.24
78615;BME280;67937;52.488;20.952;2023-04-08T02:10:02;101325.69;;;5.18;75.33
78615;BME280;67937;52.488;20.952;2023-04-08T02:12:32;101330.98;;;5.17;75.29
78615;BME280;67937;52.488;20.952;2023-04-08T02:15:00;101328.10;;;5.15;75.27
78615;BME280;67937;52.488;20.952;2023-04-08T02:17:42;101331.98;;;5.10;75.60
78615;BME280;67937;52.488;20.952;2023-04-08T02:20:22;101334.84;;;5.04;75.38
78615;BME280;67937;52.488;20.952;2023-04-08T02:23:04;101329.09;;;4.99;75.64
78615;BME280;67937;52.488;20.952;2023-04-08T02:25:37;101330.69;;;4.90;75.60
78615;BME280;67937;52.488;20.952;2023-04-08T02:28:09;101332.47;;;4.76;75.76
78615;BME280;67937;52.488;20.952;2023-04-08T02:30:40;101334.27;;;4.66;75.97
78615;BME280;67937;52.488;20.952;2023-04-08T02:33:10;101334.73;;;4.55;76.17
78615;BME280;67937;52.488;20.952;2023-04-08T02:35:39;101338.64;;;4.48;76.29
78615;BME280;67937;52.488;20.952;2023-04-08T02:38:08;101343.49;;;4.40;76.27
78615;BME280;67937;52.488;20.952;2023-04-08T02:40:37;101343.70;;;4.26;76.47
78615;BME280;67937;52.488;20.952;2023-04-08T02:43:05;101343.23;;;4.10;76.83
78615;BME280;67937;52.488;20.952;2023-04-08T02:45:37;101349.52;;;3.96;76.82
78615;BME280;67937;52.488;20.952;2023-04-08T02:48:07;101348.83;;;3.86;76.93
78615;BME280;67937;52.488;20.952;2023-04-08T02:50:36;101354.80;;;3.75;77.07
78615;BME280;67937;52.488;20.952;2023-04-08T02:53:06;101357.77;;;3.65;77.09
78615;BME280;67937;52.488;20.952;2023-04-08T02:55:34;101362.44;;;3.56;77.29
78615;BME280;67937;52.488;20.952;2023-04-08T02:58:02;101361.08;;;3.50;77.44
78615;BME280;67937;52.488;20.952;2023-04-08T03:00:30;101357.24;;;3.45;77.31
78615;BME280;67937;52.488;20.952;2023-04-08T03:02:58;101361.86;;;3.42;77.38
78615;BME280;67937;52.488;20.952;2023-04-08T03:05:27;101366.88;;;3.33;77.43
78615;BME280;67937;52.488;20.952;2023-04-08T03:07:55;101367.67;;;3.25;77.41
78615;BME280;67937;52.488;20.952;2023-04-08T03:10:23;101366.77;;;3.16;77.68
78615;BME280;67937;52.488;20.952;2023-04-08T03:12:52;101366.56;;;3.11;77.58
78615;BME280;67937;52.488;20.952;2023-04-08T03:15:20;101369.61;;;3.03;77.75
78615;BME280;67937;52.488;20.952;2023-04-08T03:17:48;101366.91;;;2.95;77.68
78615;BME280;67937;52.488;20.952;2023-04-08T03:20:16;101372.81;;;2.91;77.86
78615;BME280;67937;52.488;20.952;2023-04-08T03:22:44;101373.91;;;2.89;77.70
78615;BME280;67937;52.488;20.952;2023-04-08T03:25:12;101376.69;;;2.83;77.55
78615;BME280;67937;52.488;20.952;2023-04-08T03:27:40;101380.38;;;2.77;77.59
78615;BME280;67937;52.488;20.952;2023-04-08T03:30:08;101381.63;;;2.71;77.64
78615;BME280;67937;52.488;20.952;2023-04-08T03:32:36;101384.25;;;2.64;77.78
78615;BME280;67937;52.488;20.952;2023-04-08T03:35:05;101390.27;;;2.61;77.69
78615;BME280;67937;52.488;20.952;2023-04-08T03:37:33;101390.23;;;2.56;77.61
78615;BME280;67937;52.488;20.952;2023-04-08T03:40:02;101395.91;;;2.53;77.72
78615;BME280;67937;52.488;20.952;2023-04-08T03:42:30;101395.99;;;2.50;77.85
78615;BME280;67937;52.488;20.952;2023-04-08T03:44:59;101394.73;;;2.45;77.84
78615;BME280;67937;52.488;20.952;2023-04-08T03:47:27;101404.60;;;2.41;77.93
78615;BME280;67937;52.488;20.952;2023-04-08T03:49:55;101403.97;;;2.39;77.85
78615;BME280;67937;52.488;20.952;2023-04-08T03:52:23;101404.23;;;2.36;77.89
78615;BME280;67937;52.488;20.952;2023-04-08T03:54:51;101407.64;;;2.33;77.81
78615;BME280;67937;52.488;20.952;2023-04-08T03:57:19;101404.21;;;2.31;78.09
78615;BME280;67937;52.488;20.952;2023-04-08T03:59:48;101404.78;;;2.29;78.12
78615;BME280;67937;52.488;20.952;2023-04-08T04:02:16;101405.95;;;2.25;78.15
78615;BME280;67937;52.488;20.952;2023-04-08T04:04:44;101406.20;;;2.22;78.23
78615;BME280;67937;52.488;20.952;2023-04-08T04:07:12;101405.24;;;2.19;78.22
78615;BME280;67937;52.488;20.952;2023-04-08T04:09:40;101409.33;;;2.16;78.31
78615;BME280;67937;52.488;20.952;2023-04-08T04:12:08;101411.70;;;2.13;78.22
78615;BME280;67937;52.488;20.952;2023-04-08T04:14:36;101418.77;;;2.08;78.46
78615;BME280;67937;52.488;20.952;2023-04-08T04:17:04;101420.21;;;2.06;78.55
78615;BME280;67937;52.488;20.952;2023-04-08T04:19:32;101424.61;;;2.05;78.39
78615;BME280;67937;52.488;20.952;2023-04-08T04:22:00;101429.48;;;2.05;78.53
78615;BME280;67937;52.488;20.952;2023-04-08T04:24:28;101435.39;;;2.05;78.53
78615;BME280;67937;52.488;20.952;2023-04-08T04:26:56;101438.67;;;2.06;78.50
78615;BME280;67937;52.488;20.952;2023-04-08T04:29:24;101438.46;;;2.08;78.50
78615;BME280;67937;52.488;20.952;2023-04-08T04:31:52;101439.75;;;2.11;78.60
78615;BME280;67937;52.488;20.952;2023-04-08T04:34:20;101441.89;;;2.15;78.57
78615;BME280;67937;52.488;20.952;2023-04-08T04:36:49;101445.77;;;2.20;78.63
78615;BME280;67937;52.488;20.952;2023-04-08T04:39:17;101450.85;;;2.26;78.68
78615;BME280;67937;52.488;20.952;2023-04-08T04:41:45;101449.31;;;2.31;78.91
78615;BME280;67937;52.488;20.952;2023-04-08T04:44:14;101454.04;;;2.36;78.91
78615;BME280;67937;52.488;20.952;2023-04-08T04:46:42;101453.30;;;2.44;78.76
78615;BME280;67937;52.488;20.952;2023-04-08T04:49:10;101455.05;;;2.50;78.84
78615;BME280;67937;52.488;20.952;2023-04-08T04:51:38;101457.48;;;2.56;78.85
78615;BME280;67937;52.488;20.952;2023-04-08T04:54:06;101455.58;;;2.62;78.84
78615;BME280;67937;52.488;20.952;2023-04-08T04:56:34;101455.81;;;2.66;78.87
78615;BME280;67937;52.488;20.952;2023-04-08T04:59:02;101454.62;;;2.71;78.97
78615;BME280;67937;52.488;20.952;2023-04-08T05:01:31;101452.89;;;2.77;78.88
78615;BME280;67937;52.488;20.952;2023-04-08T05:03:59;101450.67;;;2.80;78.98
78615;BME280;67937;52.488;20.952;2023-04-08T05:06:27;101457.14;;;2.86;78.86
78615;BME280;67937;52.488;20.952;2023-04-08T05:08:55;101459.77;;;2.91;78.99
78615;BME280;67937;52.488;20.952;2023-04-08T05:11:23;101461.67;;;2.97;79.12
78615;BME280;67937;52.488;20.952;2023-04-08T05:13:51;101463.19;;;3.05;78.91
78615;BME280;67937;52.488;20.952;2023-04-08T05:16:19;101468.74;;;3.11;78.96
78615;BME280;67937;52.488;20.952;2023-04-08T05:18:47;101471.10;;;3.20;78.87
78615;BME280;67937;52.488;20.952;2023-04-08T05:21:16;101467.73;;;3.27;78.65
78615;BME280;67937;52.488;20.952;2023-04-08T05:23:44;101468.86;;;3.35;78.59
78615;BME280;67937;52.488;20.952;2023-04-08T05:26:12;101471.88;;;3.44;78.53
78615;BME280;67937;52.488;20.952;2023-04-08T05:28:40;101471.52;;;3.56;78.29
78615;BME280;67937;52.488;20.952;2023-04-08T05:31:08;101475.37;;;3.66;78.33
78615;BME280;67937;52.488;20.952;2023-04-08T05:33:37;101478.55;;;3.75;78.32
78615;BME280;67937;52.488;20.952;2023-04-08T05:36:05;101478.61;;;3.89;78.31
78615;BME280;67937;52.488;20.952;2023-04-08T05:38:33;101479.21;;;4.02;78.14
78615;BME280;67937;52.488;20.952;2023-04-08T05:41:01;101480.63;;;4.17;77.77
78615;BME280;67937;52.488;20.952;2023-04-08T05:43:32;101480.90;;;4.28;77.74
78615;BME280;67937;52.488;20.952;2023-04-08T05:46:05;101479.64;;;4.39;77.56
78615;BME280;67937;52.488;20.952;2023-04-08T05:48:34;101484.88;;;4.54;77.48
78615;BME280;67937;52.488;20.952;2023-04-08T05:51:02;101486.85;;;4.67;77.29
78615;BME280;67937;52.488;20.952;2023-04-08T05:53:30;101489.81;;;4.81;77.19
78615;BME280;67937;52.488;20.952;2023-04-08T05:55:58;101487.36;;;5.00;76.74
78615;BME280;67937;52.488;20.952;2023-04-08T05:58:26;101492.31;;;5.16;76.67
78615;BME280;67937;52.488;20.952;2023-04-08T06:00:54;101491.59;;;5.35;75.88
78615;BME280;67937;52.488;20.952;2023-04-08T06:03:22;101490.65;;;5.50;75.02
78615;BME280;67937;52.488;20.952;2023-04-08T06:05:50;101496.56;;;5.59;75.59
78615;BME280;67937;52.488;20.952;2023-04-08T06:08:18;101496.23;;;5.81;75.45
78615;BME280;67937;52.488;20.952;2023-04-08T06:10:50;101492.63;;;5.96;75.55
78615;BME280;67937;52.488;20.952;2023-04-08T06:13:18;101496.94;;;6.14;75.07
78615;BME280;67937;52.488;20.952;2023-04-08T06:15:47;101499.63;;;6.29;74.45
78615;BME280;67937;52.488;20.952;2023-04-08T06:18:16;101500.04;;;6.39;74.60
78615;BME280;67937;52.488;20.952;2023-04-08T06:20:44;101498.37;;;6.61;72.92
78615;BME280;67937;52.488;20.952;2023-04-08T06:23:12;101501.03;;;6.65;72.90
78615;BME280;67937;52.488;20.952;2023-04-08T06:25:40;101502.30;;;6.72;72.95
78615;BME280;67937;52.488;20.952;2023-04-08T06:28:08;101504.05;;;6.87;72.39
78615;BME280;67937;52.488;20.952;2023-04-08T06:30:37;101502.98;;;6.99;72.77
78615;BME280;67937;52.488;20.952;2023-04-08T06:33:05;101504.34;;;7.15;72.51
78615;BME280;67937;52.488;20.952;2023-04-08T06:35:33;101501.99;;;7.27;72.14
78615;BME280;67937;52.488;20.952;2023-04-08T06:38:03;101499.30;;;7.39;71.75
78615;BME280;67937;52.488;20.952;2023-04-08T06:40:31;101498.71;;;7.62;69.21
78615;BME280;67937;52.488;20.952;2023-04-08T06:42:59;101499.88;;;7.64;68.80
78615;BME280;67937;52.488;20.952;2023-04-08T06:45:27;101502.80;;;7.65;69.07
78615;BME280;67937;52.488;20.952;2023-04-08T06:47:55;101503.38;;;7.67;69.44
78615;BME280;67937;52.488;20.952;2023-04-08T06:50:23;101503.90;;;7.78;69.70
78615;BME280;67937;52.488;20.952;2023-04-08T06:52:51;101508.05;;;7.90;68.87
78615;BME280;67937;52.488;20.952;2023-04-08T06:55:20;101503.82;;;8.05;68.85
78615;BME280;67937;52.488;20.952;2023-04-08T06:57:48;101507.20;;;8.21;67.22
78615;BME280;67937;52.488;20.952;2023-04-08T07:00:16;101513.58;;;8.24;67.84
78615;BME280;67937;52.488;20.952;2023-04-08T07:02:44;101509.48;;;8.49;65.38
78615;BME280;67937;52.488;20.952;2023-04-08T07:05:12;101510.23;;;8.45;66.69
78615;BME280;67937;52.488;20.952;2023-04-08T07:07:40;101513.36;;;8.59;66.64
78615;BME280;67937;52.488;20.952;2023-04-08T07:10:09;101510.92;;;8.75;64.77
78615;BME280;67937;52.488;20.952;2023-04-08T07:12:37;101506.78;;;8.86;64.61
78615;BME280;67937;52.488;20.952;2023-04-08T07:15:06;101507.62;;;8.96;63.10
78615;BME280;67937;52.488;20.952;2023-04-08T07:17:34;101505.20;;;9.09;62.68
78615;BME280;67937;52.488;20.952;2023-04-08T07:20:02;101505.95;;;9.08;62.35
78615;BME280;67937;52.488;20.952;2023-04-08T07:22:30;101509.23;;;9.25;62.56
78615;BME280;67937;52.488;20.952;2023-04-08T07:24:58;101511.10;;;9.36;63.31
78615;BME280;67937;52.488;20.952;2023-04-08T07:27:26;101516.13;;;9.46;63.70
78615;BME280;67937;52.488;20.952;2023-04-08T07:29:54;101515.67;;;9.60;64.01
78615;BME280;67937;52.488;20.952;2023-04-08T07:32:23;101520.70;;;9.77;63.16
78615;BME280;67937;52.488;20.952;2023-04-08T07:34:51;101520.53;;;9.89;62.78
78615;BME280;67937;52.488;20.952;2023-04-08T07:37:19;101521.15;;;10.00;63.79
78615;BME280;67937;52.488;20.952;2023-04-08T07:39:48;101523.89;;;10.17;63.51
78615;BME280;67937;52.488;20.952;2023-04-08T07:42:16;101526.23;;;10.37;61.84
78615;BME280;67937;52.488;20.952;2023-04-08T07:44:47;101522.15;;;10.37;61.58
78615;BME280;67937;52.488;20.952;2023-04-08T07:47:15;101520.64;;;10.45;62.05
78615;BME280;67937;52.488;20.952;2023-04-08T07:49:45;101520.51;;;10.64;61.93
78615;BME280;67937;52.488;20.952;2023-04-08T07:52:13;101525.04;;;10.74;62.04
78615;BME280;67937;52.488;20.952;2023-04-08T07:54:42;101525.05;;;10.77;61.50
78615;BME280;67937;52.488;20.952;2023-04-08T07:57:10;101522.13;;;10.84;59.38
78615;BME280;67937;52.488;20.952;2023-04-08T07:59:38;101523.39;;;10.63;60.99
78615;BME280;67937;52.488;20.952;2023-04-08T08:02:06;101527.14;;;10.77;61.71
78615;BME280;67937;52.488;20.952;2023-04-08T08:04:34;101526.44;;;11.02;61.64
78615;BME280;67937;52.488;20.952;2023-04-08T08:07:02;101521.95;;;11.20;61.69
78615;BME280;67937;52.488;20.952;2023-04-08T08:09:30;101519.16;;;11.39;61.37
78615;BME280;67937;52.488;20.952;2023-04-08T08:11:58;101516.02;;;11.60;60.87
78615;BME280;67937;52.488;20.952;2023-04-08T08:14:26;101518.73;;;11.71;60.28
78615;BME280;67937;52.488;20.952;2023-04-08T08:16:54;101517.89;;;11.80;60.01
78615;BME280;67937;52.488;20.952;2023-04-08T08:19:22;101518.92;;;11.89;60.35
78615;BME280;67937;52.488;20.952;2023-04-08T08:21:51;101518.29;;;12.04;60.27
78615;BME280;67937;52.488;20.952;2023-04-08T08:24:19;101517.38;;;12.17;60.17
78615;BME280;67937;52.488;20.952;2023-04-08T08:26:47;101515.98;;;12.37;59.11
78615;BME280;67937;52.488;20.952;2023-04-08T08:29:15;101519.27;;;12.39;59.44
78615;BME280;67937;52.488;20.952;2023-04-08T08:31:43;101515.22;;;12.43;58.51
78615;BME280;67937;52.488;20.952;2023-04-08T08:34:11;101511.05;;;12.42;58.96
78615;BME280;67937;52.488;20.952;2023-04-08T08:36:39;101509.35;;;12.56;59.18
78615;BME280;67937;52.488;20.952;2023-04-08T08:39:07;101508.69;;;12.74;59.02
78615;BME280;67937;52.488;20.952;2023-04-08T08:41:35;101508.27;;;12.79;57.58
78615;BME280;67937;52.488;20.952;2023-04-08T08:44:07;101513.36;;;12.70;57.24
78615;BME280;67937;52.488;20.952;2023-04-08T08:46:43;101511.23;;;12.70;58.40
78615;BME280;67937;52.488;20.952;2023-04-08T08:49:12;101510.98;;;12.83;58.56
78615;BME280;67937;52.488;20.952;2023-04-08T08:51:40;101509.13;;;13.00;58.64
78615;BME280;67937;52.488;20.952;2023-04-08T08:54:08;101509.34;;;13.13;57.93
78615;BME280;67937;52.488;20.952;2023-04-08T08:56:36;101506.96;;;13.03;57.12
78615;BME280;67937;52.488;20.952;2023-04-08T08:59:04;101509.77;;;12.93;57.66
78615;BME280;67937;52.488;20.952;2023-04-08T09:01:34;101508.91;;;12.83;57.79
78615;BME280;67937;52.488;20.952;2023-04-08T09:04:16;101510.10;;;12.78;57.82
78615;BME280;67937;52.488;20.952;2023-04-08T09:06:46;101508.65;;;12.71;57.51
78615;BME280;67937;52.488;20.952;2023-04-08T09:09:16;101507.86;;;12.91;56.58
78615;BME280;67937;52.488;20.952;2023-04-08T09:11:45;101508.45;;;12.79;57.22
78615;BME280;67937;52.488;20.952;2023-04-08T09:16:45;101513.18;;;12.67;55.21
78615;BME280;67937;52.488;20.952;2023-04-08T09:19:13;101518.11;;;12.58;56.82
78615;BME280;67937;52.488;20.952;2023-04-08T09:21:41;101514.95;;;12.65;56.21
78615;BME280;67937;52.488;20.952;2023-04-08T09:24:27;101517.59;;;12.63;57.03
78615;BME280;67937;52.488;20.952;2023-04-08T09:26:55;101519.05;;;12.85;55.06
78615;BME280;67937;52.488;20.952;2023-04-08T09:29:24;101518.27;;;12.53;54.72
78615;BME280;67937;52.488;20.952;2023-04-08T09:32:00;101524.35;;;12.29;57.16
78615;BME280;67937;52.488;20.952;2023-04-08T09:34:29;101523.90;;;12.41;57.60
78615;BME280;67937;52.488;20.952;2023-04-08T09:36:59;101522.73;;;12.57;57.89
78615;BME280;67937;52.488;20.952;2023-04-08T09:39:27;101519.33;;;12.86;56.47
78615;BME280;67937;52.488;20.952;2023-04-08T09:41:57;101521.88;;;12.93;57.14
78615;BME280;67937;52.488;20.952;2023-04-08T09:44:28;101518.52;;;12.93;56.97
78615;BME280;67937;52.488;20.952;2023-04-08T09:47:11;101518.08;;;12.96;56.33
78615;BME280;67937;52.488;20.952;2023-04-08T09:49:54;101516.34;;;13.11;55.38
78615;BME280;67937;52.488;20.952;2023-04-08T09:52:41;101518.40;;;13.05;56.30
78615;BME280;67937;52.488;20.952;2023-04-08T09:55:12;101516.88;;;13.04;55.96
78615;BME280;67937;52.488;20.952;2023-04-08T09:57:48;101512.70;;;13.17;54.92
78615;BME280;67937;52.488;20.952;2023-04-08T10:00:18;101517.58;;;13.01;56.13
78615;BME280;67937;52.488;20.952;2023-04-08T10:03:13;101521.73;;;13.03;57.03
78615;BME280;67937;52.488;20.952;2023-04-08T10:05:46;101518.08;;;13.09;57.10
78615;BME280;67937;52.488;20.952;2023-04-08T10:08:15;101515.13;;;13.13;56.68
78615;BME280;67937;52.488;20.952;2023-04-08T10:10:43;101514.31;;;13.03;56.43
78615;BME280;67937;52.488;20.952;2023-04-08T10:13:12;101507.98;;;13.07;55.99
78615;BME280;67937;52.488;20.952;2023-04-08T10:15:40;101504.34;;;13.11;55.60
78615;BME280;67937;52.488;20.952;2023-04-08T10:23:06;101508.05;;;13.16;55.37
78615;BME280;67937;52.488;20.952;2023-04-08T10:25:36;101504.02;;;13.22;54.73
78615;BME280;67937;52.488;20.952;2023-04-08T10:30:50;101508.19;;;13.28;54.66
78615;BME280;67937;52.488;20.952;2023-04-08T10:33:31;101510.27;;;13.36;54.40
78615;BME280;67937;52.488;20.952;2023-04-08T10:36:07;101508.36;;;13.36;54.36
78615;BME280;67937;52.488;20.952;2023-04-08T10:38:40;101505.82;;;13.44;54.49
78615;BME280;67937;52.488;20.952;2023-04-08T10:41:09;101509.30;;;13.52;54.15
78615;BME280;67937;52.488;20.952;2023-04-08T10:43:39;101501.66;;;13.62;53.74
78615;BME280;67937;52.488;20.952;2023-04-08T10:46:09;101502.92;;;13.80;52.86
78615;BME280;67937;52.488;20.952;2023-04-08T10:48:37;101499.51;;;13.88;52.59
78615;BME280;67937;52.488;20.952;2023-04-08T10:51:05;101498.67;;;13.85;53.07
78615;BME280;67937;52.488;20.952;2023-04-08T10:53:35;101497.64;;;13.94;53.59
78615;BME280;67937;52.488;20.952;2023-04-08T10:56:04;101494.98;;;14.10;53.53
78615;BME280;67937;52.488;20.952;2023-04-08T10:58:34;101493.81;;;14.26;53.50
78615;BME280;67937;52.488;20.952;2023-04-08T11:01:06;101491.31;;;14.38;52.31
78615;BME280;67937;52.488;20.952;2023-04-08T11:03:35;101485.33;;;14.39;51.73
78615;BME280;67937;52.488;20.952;2023-04-08T11:06:04;101485.16;;;14.48;51.76
78615;BME280;67937;52.488;20.952;2023-04-08T11:08:33;101484.98;;;14.59;52.24
78615;BME280;67937;52.488;20.952;2023-04-08T11:11:06;101481.30;;;14.79;52.56
78615;BME280;67937;52.488;20.952;2023-04-08T11:13:39;101479.16;;;14.95;52.19
78615;BME280;67937;52.488;20.952;2023-04-08T11:16:08;101486.45;;;14.99;51.95
78615;BME280;67937;52.488;20.952;2023-04-08T11:18:37;101483.39;;;15.04;52.07
78615;BME280;67937;52.488;20.952;2023-04-08T11:21:10;101483.47;;;15.29;51.81
78615;BME280;67937;52.488;20.952;2023-04-08T11:23:38;101476.33;;;15.61;51.55
78615;BME280;67937;52.488;20.952;2023-04-08T11:26:06;101472.06;;;15.80;50.40
78615;BME280;67937;52.488;20.952;2023-04-08T11:28:34;101476.80;;;15.99;49.77
78615;BME280;67937;52.488;20.952;2023-04-08T11:31:03;101474.86;;;16.18;49.38
78615;BME280;67937;52.488;20.952;2023-04-08T11:33:32;101476.33;;;16.24;48.94
78615;BME280;67937;52.488;20.952;2023-04-08T11:36:01;101472.25;;;16.29;48.99
78615;BME280;67937;52.488;20.952;2023-04-08T11:38:30;101468.39;;;16.48;48.50
78615;BME280;67937;52.488;20.952;2023-04-08T11:40:58;101473.38;;;16.52;48.67
78615;BME280;67937;52.488;20.952;2023-04-08T11:43:27;101470.27;;;16.55;48.73
78615;BME280;67937;52.488;20.952;2023-04-08T11:45:55;101467.05;;;16.73;48.39
78615;BME280;67937;52.488;20.952;2023-04-08T11:48:23;101463.48;;;16.85;47.67
78615;BME280;67937;52.488;20.952;2023-04-08T11:51:05;101463.28;;;17.03;47.86
78615;BME280;67937;52.488;20.952;2023-04-08T11:53:35;101461.42;;;17.28;47.61
78615;BME280;67937;52.488;20.952;2023-04-08T11:56:19;101461.00;;;17.44;46.18
78615;BME280;67937;52.488;20.952;2023-04-08T11:58:49;101461.70;;;17.45;46.62
78615;BME280;67937;52.488;20.952;2023-04-08T12:01:18;101460.82;;;17.70;46.64
78615;BME280;67937;52.488;20.952;2023-04-08T12:06:22;101454.48;;;18.12;46.21
78615;BME280;67937;52.488;20.952;2023-04-08T12:08:50;101449.48;;;18.00;45.58
78615;BME280;67937;52.488;20.952;2023-04-08T12:11:19;101456.63;;;17.85;45.42
78615;BME280;67937;52.488;20.952;2023-04-08T12:13:47;101449.77;;;17.76;45.60
78615;BME280;67937;52.488;20.952;2023-04-08T12:16:16;101439.04;;;17.81;46.43
78615;BME280;67937;52.488;20.952;2023-04-08T12:18:45;101441.04;;;17.85;43.12
78615;BME280;67937;52.488;20.952;2023-04-08T12:21:13;101440.58;;;17.42;44.68
78615;BME280;67937;52.488;20.952;2023-04-08T12:23:42;101437.30;;;17.25;44.74
78615;BME280;67937;52.488;20.952;2023-04-08T12:26:10;101434.70;;;17.08;44.63
78615;BME280;67937;52.488;20.952;2023-04-08T12:28:38;101434.15;;;16.92;45.91
78615;BME280;67937;52.488;20.952;2023-04-08T12:31:07;101438.10;;;16.98;46.33
78615;BME280;67937;52.488;20.952;2023-04-08T12:33:35;101436.04;;;17.01;46.15
78615;BME280;67937;52.488;20.952;2023-04-08T12:36:03;101426.34;;;17.20;46.70
78615;BME280;67937;52.488;20.952;2023-04-08T12:38:31;101428.09;;;17.37;46.62
78615;BME280;67937;52.488;20.952;2023-04-08T12:40:59;101429.14;;;17.50;46.97
78615;BME280;67937;52.488;20.952;2023-04-08T12:43:27;101426.32;;;17.49;47.27
78615;BME280;67937;52.488;20.952;2023-04-08T12:45:55;101422.77;;;17.47;47.21
78615;BME280;67937;52.488;20.952;2023-04-08T12:48:23;101424.52;;;17.37;47.15
78615;BME280;67937;52.488;20.952;2023-04-08T12:50:51;101425.43;;;17.12;47.54
78615;BME280;67937;52.488;20.952;2023-04-08T12:53:20;101423.68;;;17.08;48.10
78615;BME280;67937;52.488;20.952;2023-04-08T12:55:48;101418.60;;;17.13;48.47
78615;BME280;67937;52.488;20.952;2023-04-08T12:58:17;101420.14;;;17.35;47.80
78615;BME280;67937;52.488;20.952;2023-04-08T13:00:46;101422.25;;;17.43;46.82
78615;BME280;67937;52.488;20.952;2023-04-08T13:03:15;101422.42;;;17.45;46.85
78615;BME280;67937;52.488;20.952;2023-04-08T13:05:43;101413.26;;;17.28;46.63
78615;BME280;67937;52.488;20.952;2023-04-08T13:08:11;101412.17;;;17.11;47.16
78615;BME280;67937;52.488;20.952;2023-04-08T13:10:40;101409.13;;;17.07;47.32
78615;BME280;67937;52.488;20.952;2023-04-08T13:13:08;101407.27;;;17.23;46.39
78615;BME280;67937;52.488;20.952;2023-04-08T13:15:37;101393.90;;;17.21;44.01